createdAt,value
2023-01-17T00:02:22.179Z,18.23
2023-01-17T00:05:15.934Z,29.15
2023-01-17T00:08:01.674Z,19.02
2023-01-17T00:10:29.982Z,22.50
2023-01-17T00:12:59.878Z,18.90
2023-01-17T00:15:27.880Z,14.52
2023-01-17T00:17:55.334Z,13.38
2023-01-17T00:20:46.924Z,11.35
2023-01-17T00:24:01.162Z,14.80
2023-01-17T00:26:28.279Z,12.55
2023-01-17T00:29:13.907Z,12.23
2023-01-17T00:31:59.614Z,16.10
2023-01-17T00:34:45.264Z,13.80
2023-01-17T00:37:30.925Z,12.80
2023-01-17T00:40:16.683Z,13.57
2023-01-17T00:43:02.274Z,9.68
2023-01-17T00:45:48.052Z,11.73
2023-01-17T00:48:33.597Z,12.43
2023-01-17T00:51:21.989Z,11.10
2023-01-17T00:54:07.727Z,11.60
2023-01-17T00:56:53.247Z,6.85
2023-01-17T00:59:38.890Z,8.18
2023-01-17T01:02:26.907Z,9.60
2023-01-17T01:05:14.074Z,9.93
2023-01-17T01:08:00.042Z,8.70
2023-01-17T01:10:45.664Z,9.65
2023-01-17T01:13:31.369Z,9.43
2023-01-17T01:16:21.767Z,10.20
2023-01-17T01:19:07.552Z,14.07
2023-01-17T01:21:53.304Z,12.27
2023-01-17T01:24:38.931Z,14.20
2023-01-17T01:27:24.603Z,16.80
2023-01-17T01:30:10.277Z,13.88
2023-01-17T01:32:56.116Z,14.70
2023-01-17T01:35:24.591Z,13.98
2023-01-17T01:37:51.741Z,11.48
2023-01-17T01:40:19.917Z,11.50
2023-01-17T01:42:55.160Z,11.75
2023-01-17T01:45:28.988Z,12.98
2023-01-17T01:48:04.280Z,10.93
2023-01-17T01:50:34.268Z,11.30
2023-01-17T01:53:04.686Z,12.18
2023-01-17T01:55:36.277Z,10.77
2023-01-17T01:58:10.689Z,12.23
2023-01-17T02:00:39.797Z,11.32
2023-01-17T02:03:16.228Z,7.53
2023-01-17T02:05:44.076Z,6.60
2023-01-17T02:08:18.318Z,8.65
2023-01-17T02:10:45.990Z,5.97
2023-01-17T02:13:16.268Z,7.78
2023-01-17T02:15:52.712Z,8.30
2023-01-17T02:18:35.325Z,5.72
2023-01-17T02:21:23.566Z,8.73
2023-01-17T02:24:13.228Z,6.40
2023-01-17T02:27:13.417Z,5.45
2023-01-17T02:29:52.584Z,5.60
2023-01-17T02:32:25.740Z,3.78
2023-01-17T02:35:13.812Z,2.33
2023-01-17T02:37:45.103Z,3.85
2023-01-17T02:40:25.349Z,2.35
2023-01-17T02:43:05.981Z,2.10
2023-01-17T02:45:33.078Z,3.85
2023-01-17T02:48:00.157Z,2.92
2023-01-17T02:50:57.022Z,3.00
2023-01-17T02:53:48.727Z,3.15
2023-01-17T02:56:44.023Z,2.13
2023-01-17T03:01:59.169Z,3.13
2023-01-17T03:04:39.230Z,3.33
2023-01-17T03:07:16.789Z,2.38
2023-01-17T03:09:47.283Z,1.08
2023-01-17T03:12:14.500Z,3.47
2023-01-17T03:14:41.643Z,1.48
2023-01-17T03:17:09.211Z,4.00
2023-01-17T03:19:36.331Z,1.55
2023-01-17T03:22:03.511Z,1.17
2023-01-17T03:24:30.606Z,1.58
2023-01-17T03:26:57.680Z,1.40
2023-01-17T03:29:24.812Z,2.35
2023-01-17T03:31:51.883Z,1.65
2023-01-17T03:34:18.933Z,1.73
2023-01-17T03:36:45.975Z,2.58
2023-01-17T03:39:13.059Z,2.85
2023-01-17T03:41:40.082Z,1.95
2023-01-17T03:44:07.278Z,1.20
2023-01-17T03:46:34.389Z,2.90
2023-01-17T03:49:01.553Z,2.55
2023-01-17T03:51:28.820Z,2.90
2023-01-17T03:53:55.915Z,1.52
2023-01-17T03:56:23.046Z,1.73
2023-01-17T03:58:50.210Z,2.05
2023-01-17T04:01:17.459Z,1.67
2023-01-17T04:03:44.559Z,2.42
2023-01-17T04:06:11.649Z,1.45
2023-01-17T04:08:38.707Z,1.70
2023-01-17T04:11:05.811Z,1.42
2023-01-17T04:13:32.915Z,4.50
2023-01-17T04:16:00.110Z,1.27
2023-01-17T04:18:27.552Z,1.95
2023-01-17T04:20:54.677Z,1.95
2023-01-17T04:23:21.737Z,3.30
2023-01-17T04:25:48.798Z,2.65
2023-01-17T04:28:15.930Z,2.97
2023-01-17T04:30:43.064Z,1.90
2023-01-17T04:33:10.120Z,1.73
2023-01-17T04:35:37.258Z,3.78
2023-01-17T04:38:04.539Z,2.55
2023-01-17T04:40:31.680Z,2.75
2023-01-17T04:42:58.911Z,6.00
2023-01-17T04:45:25.992Z,5.38
2023-01-17T04:47:53.083Z,3.20
2023-01-17T04:50:20.303Z,3.70
2023-01-17T04:52:47.417Z,5.95
2023-01-17T04:55:14.608Z,7.38
2023-01-17T04:57:41.707Z,1.83
2023-01-17T05:00:09.288Z,1.40
2023-01-17T05:02:36.406Z,3.08
2023-01-17T05:05:03.581Z,2.08
2023-01-17T05:07:30.677Z,3.25
2023-01-17T05:09:57.840Z,3.42
2023-01-17T05:12:24.936Z,5.05
2023-01-17T05:14:52.024Z,23.83
2023-01-17T05:17:19.348Z,10.80
2023-01-17T05:19:46.632Z,6.68
2023-01-17T05:22:16.088Z,7.55
2023-01-17T05:24:47.637Z,8.57
2023-01-17T05:27:15.703Z,4.68
2023-01-17T05:29:43.119Z,4.65
2023-01-17T05:32:10.324Z,5.35
2023-01-17T05:34:37.505Z,2.40
2023-01-17T05:37:04.583Z,3.63
2023-01-17T05:39:31.657Z,5.25
2023-01-17T05:41:59.817Z,1.77
2023-01-17T05:44:27.868Z,2.00
2023-01-17T05:46:56.612Z,4.80
2023-01-17T05:49:23.851Z,1.52
2023-01-17T05:51:52.368Z,2.35
2023-01-17T05:54:20.592Z,9.82
2023-01-17T05:56:47.722Z,3.10
2023-01-17T05:59:16.180Z,8.55
2023-01-17T06:01:44.443Z,12.32
2023-01-17T06:04:11.443Z,6.50
2023-01-17T06:06:38.538Z,9.25
2023-01-17T06:09:05.729Z,11.13
2023-01-17T06:11:32.784Z,13.45
2023-01-17T06:13:59.910Z,8.25
2023-01-17T06:16:27.032Z,11.43
2023-01-17T06:18:54.244Z,15.02
2023-01-17T06:21:21.281Z,7.47
2023-01-17T06:23:48.351Z,14.70
2023-01-17T06:26:15.404Z,20.50
2023-01-17T06:28:42.596Z,14.32
2023-01-17T06:31:09.929Z,16.85
2023-01-17T06:33:37.378Z,10.48
2023-01-17T06:36:04.874Z,13.20
2023-01-17T06:38:32.087Z,9.13
2023-01-17T06:41:00.661Z,7.00
2023-01-17T06:43:32.932Z,3.70
2023-01-17T06:46:01.147Z,1.77
2023-01-17T06:48:28.472Z,1.83
2023-01-17T06:50:57.380Z,2.58
2023-01-17T06:53:24.527Z,2.45
2023-01-17T06:55:52.712Z,4.03
2023-01-17T06:58:19.790Z,3.08
2023-01-17T07:00:47.160Z,2.50
2023-01-17T07:03:21.213Z,1.83
2023-01-17T07:05:48.935Z,4.50
2023-01-17T07:08:17.190Z,2.25
2023-01-17T07:10:45.841Z,5.75
2023-01-17T07:13:14.189Z,5.47
2023-01-17T07:15:41.477Z,3.63
2023-01-17T07:18:08.726Z,5.32
2023-01-17T07:20:35.942Z,3.50
2023-01-17T07:23:04.318Z,3.80
2023-01-17T07:25:31.410Z,3.33
2023-01-17T07:27:58.455Z,4.43
2023-01-17T07:30:26.864Z,2.13
2023-01-17T07:32:54.854Z,3.03
2023-01-17T07:35:23.316Z,2.47
2023-01-17T07:37:51.277Z,2.33
2023-01-17T07:40:20.468Z,2.97
2023-01-17T07:42:47.700Z,3.20
2023-01-17T07:45:16.380Z,2.97
2023-01-17T07:47:43.542Z,2.40
2023-01-17T07:50:11.546Z,3.95
2023-01-17T07:52:38.777Z,2.45
2023-01-17T07:55:06.733Z,1.65
2023-01-17T07:57:33.849Z,2.00
2023-01-17T08:00:00.945Z,1.25
2023-01-17T08:02:28.096Z,1.25
2023-01-17T08:04:55.139Z,3.50
2023-01-17T08:07:22.240Z,2.65
2023-01-17T08:09:50.351Z,3.60
2023-01-17T08:12:17.835Z,3.75
2023-01-17T08:14:45.433Z,1.45
2023-01-17T08:17:14.971Z,3.38
2023-01-17T08:19:42.202Z,3.90
2023-01-17T08:22:09.511Z,5.20
2023-01-17T08:24:37.772Z,2.78
2023-01-17T08:27:04.912Z,5.80
2023-01-17T08:29:32.099Z,4.03
2023-01-17T08:31:59.134Z,2.13
2023-01-17T08:34:26.820Z,4.03
2023-01-17T08:36:54.892Z,1.83
2023-01-17T08:39:22.383Z,1.17
2023-01-17T08:41:49.503Z,12.80
2023-01-17T08:44:16.697Z,8.25
2023-01-17T08:46:44.448Z,1.80
2023-01-17T08:49:12.301Z,2.90
2023-01-17T08:51:39.991Z,1.65
2023-01-17T08:54:07.402Z,1.50
2023-01-17T08:56:35.727Z,2.88
2023-01-17T08:59:03.297Z,3.20
2023-01-17T09:01:30.550Z,2.40
2023-01-17T09:03:57.826Z,3.25
2023-01-17T09:06:24.952Z,4.07
2023-01-17T09:08:55.003Z,1.40
2023-01-17T09:11:22.135Z,1.27
2023-01-17T09:13:49.204Z,1.33
2023-01-17T09:16:16.361Z,1.50
2023-01-17T09:18:43.460Z,4.10
2023-01-17T09:21:17.922Z,2.40
2023-01-17T09:23:46.606Z,4.13
2023-01-17T09:26:25.700Z,0.77
2023-01-17T09:28:52.907Z,1.00
2023-01-17T09:31:22.080Z,0.80
2023-01-17T09:33:50.246Z,1.60
2023-01-17T09:36:17.981Z,0.55
2023-01-17T09:38:45.365Z,1.33
2023-01-17T09:41:22.210Z,1.63
2023-01-17T09:43:56.991Z,1.92
2023-01-17T09:46:28.986Z,1.50
2023-01-17T09:49:13.226Z,2.47
2023-01-17T09:51:40.732Z,1.10
2023-01-17T09:54:18.303Z,2.88
2023-01-17T09:56:55.906Z,2.45
2023-01-17T09:59:45.690Z,1.55
2023-01-17T10:02:51.758Z,0.40
2023-01-17T10:08:08.861Z,0.50
2023-01-17T10:11:17.840Z,0.55
2023-01-17T10:14:14.032Z,1.35
2023-01-17T10:17:00.043Z,1.10
2023-01-17T10:19:41.203Z,1.00
2023-01-17T10:22:39.793Z,1.65
2023-01-17T10:25:16.162Z,0.70
2023-01-17T10:27:59.308Z,3.58
2023-01-17T10:30:36.933Z,0.68
2023-01-17T10:33:31.359Z,1.92
2023-01-17T10:36:07.738Z,1.10
2023-01-17T10:38:37.888Z,4.10
2023-01-17T10:41:07.958Z,1.10
2023-01-17T10:44:06.237Z,0.70
2023-01-17T10:46:43.772Z,1.60
2023-01-17T10:49:19.004Z,2.08
2023-01-17T10:52:04.922Z,4.15
2023-01-17T10:54:45.415Z,3.13
2023-01-17T10:57:20.101Z,2.00
2023-01-17T10:59:47.226Z,1.95
2023-01-17T11:02:36.977Z,3.20
2023-01-17T11:05:18.640Z,1.50
2023-01-17T11:07:58.435Z,9.40
2023-01-17T11:10:54.396Z,1.00
2023-01-17T11:13:34.500Z,3.10
2023-01-17T11:16:07.801Z,2.33
2023-01-17T11:18:43.924Z,2.90
2023-01-17T11:21:13.669Z,1.98
2023-01-17T11:23:49.825Z,1.23
2023-01-17T11:26:28.975Z,2.90
2023-01-17T11:29:16.592Z,2.45
2023-01-17T11:31:43.782Z,0.98
2023-01-17T11:34:22.499Z,1.67
2023-01-17T11:36:50.425Z,1.40
2023-01-17T11:39:17.511Z,2.22
2023-01-17T11:41:46.319Z,0.63
2023-01-17T11:44:34.661Z,1.05
2023-01-17T11:47:12.032Z,0.93
2023-01-17T11:49:44.358Z,1.23
2023-01-17T11:52:18.214Z,0.68
2023-01-17T11:54:48.094Z,1.05
2023-01-17T11:57:36.178Z,1.30
2023-01-17T12:00:38.633Z,1.33
2023-01-17T12:03:23.984Z,2.47
2023-01-17T12:06:07.594Z,1.65
2023-01-17T12:09:23.091Z,1.92
2023-01-17T12:12:14.667Z,3.35
2023-01-17T12:15:05.900Z,1.33
2023-01-17T12:17:54.791Z,2.95
2023-01-17T12:20:41.665Z,2.03
2023-01-17T12:23:44.273Z,1.92
2023-01-17T12:26:44.723Z,5.63
2023-01-17T12:29:59.285Z,2.33
2023-01-17T12:32:45.160Z,1.85
2023-01-17T12:35:14.476Z,1.38
2023-01-17T12:37:45.326Z,1.38
2023-01-17T12:40:46.856Z,2.53
2023-01-17T12:43:37.431Z,2.65
2023-01-17T12:46:21.528Z,1.20
2023-01-17T12:48:54.714Z,1.73
2023-01-17T12:51:39.440Z,2.92
2023-01-17T12:54:40.308Z,1.30
2023-01-17T12:57:40.701Z,1.73
2023-01-17T13:00:19.746Z,1.70
2023-01-17T13:02:49.777Z,4.78
2023-01-17T13:05:29.859Z,2.67
2023-01-17T13:08:25.959Z,2.38
2023-01-17T13:11:06.801Z,2.38
2023-01-17T13:13:35.929Z,1.60
2023-01-17T13:16:17.836Z,1.92
2023-01-17T13:18:47.469Z,1.83
2023-01-17T13:21:30.792Z,2.50
2023-01-17T13:24:06.860Z,2.15
2023-01-17T13:26:59.078Z,1.77
2023-01-17T13:29:28.860Z,2.85
2023-01-17T13:32:34.333Z,3.67
2023-01-17T13:35:07.427Z,2.55
2023-01-17T13:37:57.805Z,6.88
2023-01-17T13:40:44.998Z,3.40
2023-01-17T13:43:29.808Z,3.50
2023-01-17T13:46:00.099Z,2.80
2023-01-17T13:48:34.125Z,1.25
2023-01-17T13:51:03.806Z,1.65
2023-01-17T13:53:39.621Z,4.03
2023-01-17T13:56:26.527Z,2.80
2023-01-17T13:59:02.379Z,1.92
2023-01-17T14:01:39.802Z,3.47
2023-01-17T14:04:11.663Z,3.47
2023-01-17T14:06:53.032Z,3.47
2023-01-17T14:09:23.035Z,2.25
2023-01-17T14:12:16.293Z,0.50
2023-01-17T14:14:52.351Z,2.53
2023-01-17T14:17:45.301Z,1.08
2023-01-17T14:20:12.733Z,3.65
2023-01-17T14:22:53.731Z,1.63
2023-01-17T14:25:40.817Z,3.33
2023-01-17T14:28:29.737Z,1.83
2023-01-17T14:30:59.754Z,1.90
2023-01-17T14:33:36.484Z,2.83
2023-01-17T14:36:15.458Z,4.82
2023-01-17T14:38:44.734Z,1.55
2023-01-17T14:41:33.714Z,1.33
2023-01-17T14:44:01.316Z,4.50
2023-01-17T14:46:32.656Z,4.05
2023-01-17T14:49:21.178Z,4.45
2023-01-17T14:52:05.109Z,1.45
2023-01-17T14:54:32.756Z,3.90
2023-01-17T14:57:25.222Z,3.95
2023-01-17T14:59:52.395Z,5.25
2023-01-17T15:02:20.007Z,3.47
2023-01-17T15:04:54.898Z,2.17
2023-01-17T15:07:22.861Z,4.53
2023-01-17T15:09:50.209Z,2.17
2023-01-17T15:12:17.396Z,2.88
2023-01-17T15:14:46.796Z,6.60
2023-01-17T15:17:21.253Z,4.13
2023-01-17T15:19:57.943Z,2.38
2023-01-17T15:22:26.613Z,2.38
2023-01-17T15:24:54.555Z,1.58
2023-01-17T15:27:22.007Z,3.17
2023-01-17T15:29:49.462Z,1.70
2023-01-17T15:32:31.703Z,2.65
2023-01-17T15:35:02.677Z,1.27
2023-01-17T15:37:32.922Z,2.70
2023-01-17T15:40:20.006Z,1.92
2023-01-17T15:42:59.658Z,1.55
2023-01-17T15:45:32.296Z,2.22
2023-01-17T15:48:41.215Z,3.45
2023-01-17T15:51:11.158Z,1.80
2023-01-17T15:53:41.854Z,2.80
2023-01-17T15:56:32.090Z,1.60
2023-01-17T15:59:22.619Z,3.00
2023-01-17T16:01:55.634Z,1.80
2023-01-17T16:04:34.044Z,2.70
2023-01-17T16:07:19.963Z,2.92
2023-01-17T16:09:48.591Z,1.60
2023-01-17T16:12:15.705Z,3.42
2023-01-17T16:15:02.543Z,2.15
2023-01-17T16:17:30.974Z,2.72
2023-01-17T16:19:58.308Z,3.70
2023-01-17T16:22:27.291Z,4.85
2023-01-17T16:24:59.250Z,3.38
2023-01-17T16:27:26.517Z,2.80
2023-01-17T16:29:56.297Z,1.20
2023-01-17T16:32:24.152Z,2.63
2023-01-17T16:34:51.581Z,3.38
2023-01-17T16:37:20.695Z,1.85
2023-01-17T16:39:49.219Z,5.15
2023-01-17T16:42:16.342Z,3.65
2023-01-17T16:44:43.479Z,2.13
2023-01-17T16:47:10.753Z,2.85
2023-01-17T16:49:37.965Z,4.22
2023-01-17T16:52:05.274Z,2.70
2023-01-17T16:54:32.359Z,2.20
2023-01-17T16:56:59.585Z,3.15
2023-01-17T16:59:34.571Z,2.13
2023-01-17T17:02:10.882Z,2.88
2023-01-17T17:04:38.106Z,3.03
2023-01-17T17:07:05.205Z,5.57
2023-01-17T17:09:32.527Z,3.45
2023-01-17T17:11:59.694Z,3.58
2023-01-17T17:14:27.358Z,2.50
2023-01-17T17:16:54.572Z,3.03
2023-01-17T17:19:21.754Z,4.95
2023-01-17T17:21:49.380Z,3.95
2023-01-17T17:24:17.774Z,3.97
2023-01-17T17:26:46.084Z,3.63
2023-01-17T17:29:15.504Z,5.53
2023-01-17T17:31:43.968Z,5.45
2023-01-17T17:34:13.351Z,4.28
2023-01-17T17:36:40.963Z,5.18
2023-01-17T17:39:11.711Z,6.53
2023-01-17T17:41:42.270Z,3.25
2023-01-17T17:44:09.662Z,4.93
2023-01-17T17:46:38.050Z,4.53
2023-01-17T17:49:09.834Z,4.70
2023-01-17T17:51:39.711Z,4.18
2023-01-17T17:54:09.627Z,7.13
2023-01-17T17:56:41.227Z,5.15
2023-01-17T17:59:09.674Z,4.93
2023-01-17T18:01:38.482Z,3.78
2023-01-17T18:04:07.734Z,5.35
2023-01-17T18:06:38.795Z,4.00
2023-01-17T18:09:08.339Z,6.20
2023-01-17T18:11:40.075Z,4.85
2023-01-17T18:14:13.059Z,4.57
2023-01-17T18:16:43.271Z,4.22
2023-01-17T18:19:20.999Z,4.72
2023-01-17T18:21:50.897Z,3.42
2023-01-17T18:24:20.649Z,3.88
2023-01-17T18:26:55.370Z,4.43
2023-01-17T18:29:24.588Z,2.70
2023-01-17T18:31:56.747Z,4.90
2023-01-17T18:34:29.707Z,3.30
2023-01-17T18:36:58.376Z,3.33
2023-01-17T18:39:28.752Z,6.55
2023-01-17T18:41:57.328Z,5.18
2023-01-17T18:44:25.342Z,4.68
2023-01-17T18:46:55.420Z,4.57
2023-01-17T18:49:24.635Z,3.97
2023-01-17T18:51:52.169Z,5.30
2023-01-17T18:54:20.756Z,5.28
2023-01-17T18:56:49.543Z,4.03
2023-01-17T18:59:22.278Z,2.42
2023-01-17T19:01:50.884Z,5.68
2023-01-17T19:04:20.939Z,3.17
2023-01-17T19:06:49.299Z,3.60
2023-01-17T19:09:18.035Z,3.20
2023-01-17T19:11:47.918Z,2.00
2023-01-17T19:14:16.253Z,4.93
2023-01-17T19:16:45.663Z,2.92
2023-01-17T19:19:16.066Z,4.82
2023-01-17T19:21:44.331Z,2.28
2023-01-17T19:24:13.509Z,2.03
2023-01-17T19:26:42.107Z,2.45
2023-01-17T19:29:10.458Z,1.77
2023-01-17T19:31:43.421Z,3.65
2023-01-17T19:34:15.044Z,3.17
2023-01-17T19:36:43.515Z,4.88
2023-01-17T19:39:11.501Z,4.05
2023-01-17T19:41:45.515Z,2.17
2023-01-17T19:44:15.310Z,3.95
2023-01-17T19:46:44.171Z,3.75
2023-01-17T19:49:12.449Z,2.25
2023-01-17T19:51:40.571Z,2.05
2023-01-17T19:54:08.652Z,5.15
2023-01-17T19:56:36.032Z,4.43
2023-01-17T19:59:03.853Z,3.47
2023-01-17T20:01:33.898Z,3.13
2023-01-17T20:04:03.535Z,2.55
2023-01-17T20:06:36.417Z,4.88
2023-01-17T20:09:08.031Z,3.13
2023-01-17T20:11:36.251Z,2.92
2023-01-17T20:14:06.091Z,4.82
2023-01-17T20:16:35.796Z,3.80
2023-01-17T20:19:04.420Z,1.60
2023-01-17T20:21:33.389Z,2.67
2023-01-17T20:24:09.669Z,4.40
2023-01-17T20:26:38.329Z,4.32
2023-01-17T20:29:10.778Z,2.05
2023-01-17T20:31:39.913Z,3.53
2023-01-17T20:34:10.939Z,3.13
2023-01-17T20:36:40.530Z,3.80
2023-01-17T20:39:09.410Z,3.30
2023-01-17T20:41:39.990Z,2.72
2023-01-17T20:44:11.015Z,4.50
2023-01-17T20:46:41.787Z,4.43
2023-01-17T20:49:15.714Z,4.50
2023-01-17T20:51:44.740Z,3.70
2023-01-17T20:54:18.035Z,3.38
2023-01-17T20:56:47.777Z,3.42
2023-01-17T20:59:19.672Z,3.28
2023-01-17T21:01:47.873Z,2.72
2023-01-17T21:04:16.918Z,5.30
2023-01-17T21:06:44.631Z,2.70
2023-01-17T21:09:13.554Z,2.05
2023-01-17T21:11:40.769Z,3.60
2023-01-17T21:14:08.358Z,3.47
2023-01-17T21:16:36.379Z,3.17
2023-01-17T21:19:04.031Z,4.53
2023-01-17T21:21:31.351Z,4.47
2023-01-17T21:23:59.620Z,3.65
2023-01-17T21:26:28.571Z,3.20
2023-01-17T21:28:56.335Z,3.22
2023-01-17T21:31:27.980Z,3.90
2023-01-17T21:33:56.374Z,4.40
2023-01-17T21:36:26.277Z,5.10
2023-01-17T21:38:57.285Z,4.25
2023-01-17T21:41:30.316Z,5.13
2023-01-17T21:44:00.120Z,2.72
2023-01-17T21:46:28.653Z,4.75
2023-01-17T21:48:57.400Z,3.97
2023-01-17T21:51:24.753Z,4.85
2023-01-17T21:53:51.881Z,8.75
2023-01-17T21:56:37.461Z,10.07
2023-01-17T21:59:04.567Z,21.90
2023-01-17T22:01:33.454Z,15.23
2023-01-17T22:04:04.097Z,14.20
2023-01-17T22:06:38.683Z,6.70
2023-01-17T22:11:36.736Z,7.10
2023-01-17T22:14:07.670Z,4.30
2023-01-17T22:16:34.765Z,4.80
2023-01-17T22:19:01.838Z,7.70
2023-01-17T22:21:29.170Z,5.63
2023-01-17T22:23:58.469Z,7.78
2023-01-17T22:26:28.638Z,9.93
2023-01-17T22:28:56.075Z,11.23
2023-01-17T22:31:25.770Z,7.20
2023-01-17T22:33:55.846Z,6.25
2023-01-17T22:36:24.081Z,5.70
2023-01-17T22:38:52.101Z,6.97
2023-01-17T22:41:22.751Z,6.72
2023-01-17T22:43:52.801Z,6.70
2023-01-17T22:46:23.029Z,10.13
2023-01-17T22:48:50.282Z,9.05
2023-01-17T22:51:18.851Z,5.53
2023-01-17T22:53:48.229Z,7.03
2023-01-17T22:56:18.843Z,6.43
2023-01-17T22:58:45.990Z,6.13
2023-01-17T23:01:16.288Z,6.38
2023-01-17T23:03:47.197Z,6.10
2023-01-17T23:06:20.155Z,5.88
2023-01-17T23:08:50.957Z,8.63
2023-01-17T23:11:41.896Z,6.63
2023-01-17T23:14:13.213Z,7.47
2023-01-17T23:17:02.791Z,4.22
2023-01-17T23:19:38.529Z,6.70
2023-01-17T23:22:20.856Z,5.78
2023-01-17T23:24:58.203Z,6.50
2023-01-17T23:27:43.666Z,8.43
2023-01-17T23:30:25.283Z,7.70
2023-01-17T23:32:55.498Z,8.50
2023-01-17T23:35:27.433Z,7.93
2023-01-17T23:38:13.672Z,6.53
2023-01-17T23:40:41.317Z,9.00
2023-01-17T23:43:24.822Z,6.00
2023-01-17T23:45:54.066Z,5.65
2023-01-17T23:48:24.817Z,4.55
2023-01-17T23:50:56.803Z,5.55
2023-01-17T23:53:23.928Z,4.35
2023-01-17T23:55:56.356Z,4.90
2023-01-17T23:58:26.203Z,6.30
